Time;durP1;ratioP1;P1;durP2;ratioP2;P2;SDS_P1;SDS_P2;PMS_P1;PMS_P2;Temp;Humidity;BMP_temperature;BMP_pressure;BME280_temperature;BME280_humidity;BME280_pressure;Samples;Min_cycle;Max_cycle;Signal;HPM_P1;HPM_P2
2022/11/24 00:00:05;;;;;;;687.30;527.72;;;;;;;-1.03;100.00;97210.94;7386587;19;20022;-52
2022/11/24 00:02:44;;;;;;;691.35;532.25;;;;;;;-1.10;100.00;97208.59;7385203;19;20015;-59
2022/11/24 00:05:24;;;;;;;643.92;514.47;;;;;;;-1.20;100.00;97210.59;7384502;19;20031;-53
2022/11/24 00:07:58;;;;;;;642.97;519.67;;;;;;;-1.11;100.00;97201.75;7382972;19;20010;-52
2022/11/24 00:10:34;;;;;;;641.47;518.92;;;;;;;-1.09;100.00;97205.97;7382826;19;20091;-50
2022/11/24 00:13:08;;;;;;;476.00;423.02;;;;;;;-1.13;100.00;97204.38;7391639;19;20514;-48
2022/11/24 00:15:42;;;;;;;422.65;379.33;;;;;;;-1.05;100.00;97212.72;7388166;19;20061;-56
2022/11/24 00:18:16;;;;;;;420.45;377.80;;;;;;;-1.02;100.00;97215.19;7392765;19;20009;-50
2022/11/24 00:20:57;;;;;;;405.48;363.35;;;;;;;-0.97;100.00;97221.06;7393079;19;20086;-53
2022/11/24 00:23:34;;;;;;;386.65;347.05;;;;;;;-0.97;100.00;97218.47;7392464;19;20010;-52
2022/11/24 00:26:19;;;;;;;370.25;331.38;;;;;;;-1.05;100.00;97215.28;7393357;19;20339;-52
2022/11/24 00:28:55;;;;;;;393.27;352.77;;;;;;;-0.92;100.00;97226.09;7391115;19;20017;-49
2022/11/24 00:31:31;;;;;;;392.85;352.63;;;;;;;-1.11;100.00;97223.22;7391356;19;20366;-51
2022/11/24 00:34:07;;;;;;;423.38;380.20;;;;;;;-1.06;100.00;97225.66;7390123;19;20017;-48
2022/11/24 00:36:43;;;;;;;411.77;369.95;;;;;;;-1.02;100.00;97230.69;7390149;19;20029;-51
2022/11/24 00:39:19;;;;;;;430.25;386.67;;;;;;;-0.88;100.00;97225.94;7387361;19;20347;-49
2022/11/24 00:41:57;;;;;;;422.27;380.17;;;;;;;-0.77;100.00;97223.03;7392123;19;20010;-48
2022/11/24 00:44:34;;;;;;;400.05;359.58;;;;;;;-0.72;100.00;97222.00;7388859;19;20014;-64
2022/11/24 00:47:10;;;;;;;396.00;355.63;;;;;;;-0.84;100.00;97227.53;7391301;19;20022;-49
2022/11/24 00:49:45;;;;;;;394.13;353.67;;;;;;;-0.92;100.00;97223.50;7390592;19;20018;-50
2022/11/24 00:52:18;;;;;;;404.88;363.52;;;;;;;-0.87;100.00;97230.22;7389078;19;20017;-50
2022/11/24 00:54:52;;;;;;;409.85;367.75;;;;;;;-0.70;100.00;97219.38;7391156;19;20006;-48
2022/11/24 00:57:29;;;;;;;421.75;378.42;;;;;;;-0.81;100.00;97208.53;7386582;19;20015;-50
2022/11/24 01:00:03;;;;;;;410.25;368.90;;;;;;;-0.81;100.00;97216.28;7392173;19;20006;-62
2022/11/24 01:02:38;;;;;;;413.08;371.95;;;;;;;-1.15;100.00;97219.06;7391240;19;20055;-55
2022/11/24 01:05:12;;;;;;;413.70;372.45;;;;;;;-1.05;100.00;97229.94;7390886;19;20489;-49
2022/11/24 01:07:46;;;;;;;408.75;367.30;;;;;;;-0.96;100.00;97230.50;7389715;19;20010;-49
2022/11/24 01:10:19;;;;;;;423.02;380.20;;;;;;;-1.15;100.00;97226.78;7386670;19;20014;-53
2022/11/24 01:12:56;;;;;;;412.30;370.98;;;;;;;-1.16;100.00;97229.41;7391495;19;20007;-50
2022/11/24 01:15:30;;;;;;;423.88;381.05;;;;;;;-1.06;100.00;97235.97;7385879;19;20010;-64
2022/11/24 01:18:05;;;;;;;425.58;383.35;;;;;;;-0.71;100.00;97239.19;7389190;19;20031;-52
2022/11/24 01:20:42;;;;;;;409.92;368.63;;;;;;;-0.69;100.00;97244.28;7390068;19;20010;-53
2022/11/24 01:23:16;;;;;;;421.63;379.20;;;;;;;-0.72;100.00;97250.38;7383225;19;20018;-52
2022/11/24 01:25:50;;;;;;;421.95;380.08;;;;;;;-0.86;100.00;97238.81;7389955;19;20070;-51
2022/11/24 01:28:27;;;;;;;419.95;377.50;;;;;;;-1.10;100.00;97245.56;7385940;19;20018;-50
2022/11/24 01:31:04;;;;;;;404.10;363.73;;;;;;;-0.95;100.00;97234.78;7390155;19;20066;-53
2022/11/24 01:33:43;;;;;;;403.35;362.75;;;;;;;-0.78;100.00;97250.59;7389351;19;20094;-65
2022/11/24 01:36:18;;;;;;;412.90;371.90;;;;;;;-1.06;100.00;97248.88;7387695;19;20011;-49
2022/11/24 01:38:52;;;;;;;420.05;378.35;;;;;;;-0.99;100.00;97243.50;7388884;19;20010;-52
2022/11/24 01:41:31;;;;;;;416.75;374.35;;;;;;;-1.09;100.00;97244.66;7388912;19;20018;-52
2022/11/24 01:44:29;;;;;;;414.05;372.30;;;;;;;-1.02;100.00;97248.75;7391532;19;20033;-49
2022/11/24 01:47:07;;;;;;;397.50;357.10;;;;;;;-1.04;100.00;97249.69;7388984;19;20025;-51
2022/11/24 01:49:47;;;;;;;;;;;;;;;-1.00;100.00;97252.13;7386907;19;20019;-61
2022/11/24 01:52:25;;;;;;;505.73;447.63;;;;;;;-0.99;100.00;97260.69;7385315;19;19941;-52
2022/11/24 01:55:03;;;;;;;420.52;378.40;;;;;;;-1.06;100.00;97257.47;7387520;19;20017;-56
2022/11/24 01:57:44;;;;;;;402.10;361.02;;;;;;;-1.13;100.00;97268.84;7387774;19;20007;-50
2022/11/24 02:00:22;;;;;;;412.27;370.42;;;;;;;-0.99;100.00;97264.13;7390024;19;20017;-52
2022/11/24 02:02:56;;;;;;;401.65;360.77;;;;;;;-1.00;100.00;97267.63;7387059;19;20014;-52
2022/11/24 02:05:37;;;;;;;409.45;367.65;;;;;;;-1.12;100.00;97272.28;7388191;19;20017;-48
2022/11/24 02:08:16;;;;;;;416.92;373.85;;;;;;;-1.20;100.00;97274.25;7386893;19;20019;-53
2022/11/24 02:10:52;;;;;;;406.00;363.95;;;;;;;-1.21;100.00;97270.81;7387071;19;20011;-54
2022/11/24 02:13:27;;;;;;;420.48;376.38;;;;;;;-1.16;100.00;97276.66;7382960;19;20074;-53
2022/11/24 02:16:16;;;;;;;414.67;371.73;;;;;;;-1.19;100.00;97270.78;7388541;19;20608;-52
2022/11/24 02:18:53;;;;;;;510.48;446.85;;;;;;;-1.32;100.00;97267.69;7384242;19;20272;-51
2022/11/24 02:21:27;;;;;;;670.45;527.17;;;;;;;-1.31;100.00;97271.97;7388370;19;20014;-53
2022/11/24 02:24:12;;;;;;;698.92;560.20;;;;;;;-1.25;100.00;97276.94;7383431;19;20083;-53
2022/11/24 02:26:51;;;;;;;687.88;542.70;;;;;;;-1.44;100.00;97265.47;7389173;19;20078;-54
2022/11/24 02:29:25;;;;;;;696.10;547.67;;;;;;;-1.49;100.00;97266.50;7380016;19;20003;-54
2022/11/24 02:32:06;;;;;;;643.17;514.90;;;;;;;-1.55;100.00;97267.50;7388048;19;20021;-53
2022/11/24 02:34:40;;;;;;;655.85;531.88;;;;;;;-1.25;100.00;97270.94;7380362;19;20037;-56
2022/11/24 02:37:16;;;;;;;657.28;527.30;;;;;;;-1.40;100.00;97269.66;7388286;19;20034;-51
2022/11/24 02:39:50;;;;;;;644.72;525.58;;;;;;;-1.35;100.00;97265.19;7389363;19;20006;-49
2022/11/24 02:42:28;;;;;;;501.17;445.48;;;;;;;-1.34;100.00;97264.31;7386040;19;20118;-48
2022/11/24 02:45:08;;;;;;;448.35;399.10;;;;;;;-1.41;100.00;97264.53;7389596;19;20013;-52
2022/11/24 02:47:42;;;;;;;425.85;382.02;;;;;;;-1.29;100.00;97261.59;7381397;19;20018;-52
2022/11/24 02:50:16;;;;;;;415.98;373.42;;;;;;;-1.34;100.00;97263.47;7389025;19;20010;-50
2022/11/24 02:52:50;;;;;;;420.02;377.27;;;;;;;-1.42;100.00;97262.84;7382512;19;20442;-64
2022/11/24 02:55:24;;;;;;;390.80;350.67;;;;;;;-1.54;100.00;97263.19;7387041;19;20010;-50
2022/11/24 02:58:01;;;;;;;382.33;342.92;;;;;;;-1.61;100.00;97247.03;7387939;19;20029;-56
2022/11/24 03:00:35;;;;;;;400.13;358.65;;;;;;;-1.31;100.00;97258.25;7384694;19;20690;-49
2022/11/24 03:03:10;;;;;;;390.92;351.05;;;;;;;-1.31;100.00;97253.09;7387267;19;20006;-50
2022/11/24 03:05:46;;;;;;;441.23;397.45;;;;;;;-1.31;100.00;97260.81;7381426;19;20086;-53
2022/11/24 03:08:19;;;;;;;411.58;369.77;;;;;;;-1.40;100.00;97261.06;7387829;19;20030;-49
2022/11/24 03:10:53;;;;;;;411.30;370.08;;;;;;;-1.43;100.00;97253.41;7388004;19;20014;-51
2022/11/24 03:13:30;;;;;;;416.95;374.67;;;;;;;-1.32;100.00;97259.97;7387618;19;20021;-51
2022/11/24 03:16:06;;;;;;;407.15;365.92;;;;;;;-1.33;100.00;97268.59;7387996;19;20013;-56
2022/11/24 03:18:41;;;;;;;413.10;370.40;;;;;;;-1.39;100.00;97258.44;7380610;19;20021;-51
2022/11/24 03:21:15;;;;;;;398.00;358.25;;;;;;;-1.36;100.00;97260.94;7384434;19;21475;-49
2022/11/24 03:23:49;;;;;;;406.70;365.05;;;;;;;-1.35;100.00;97257.47;7384205;19;20010;-59
2022/11/24 03:26:25;;;;;;;395.33;354.85;;;;;;;-1.48;100.00;97253.56;7387437;19;20011;-49
2022/11/24 03:29:03;;;;;;;414.13;371.60;;;;;;;-1.58;100.00;97262.44;7386559;19;20024;-49
2022/11/24 03:31:37;;;;;;;419.58;377.55;;;;;;;-1.38;100.00;97264.47;7384394;19;20033;-50
2022/11/24 03:34:11;;;;;;;410.98;369.08;;;;;;;-0.86;100.00;97260.28;7387457;19;20078;-50
2022/11/24 03:36:45;;;;;;;422.73;379.85;;;;;;;-1.12;100.00;97262.78;7381724;19;20045;-56
2022/11/24 03:39:20;;;;;;;408.40;366.75;;;;;;;-0.99;100.00;97260.69;7388003;19;20014;-50
2022/11/24 03:41:55;;;;;;;409.02;366.58;;;;;;;-0.90;100.00;97261.25;7385081;19;20011;-49
2022/11/24 03:44:31;;;;;;;405.60;363.42;;;;;;;-1.19;100.00;97263.84;7387539;19;20018;-48
2022/11/24 03:47:05;;;;;;;422.20;379.08;;;;;;;-1.29;100.00;97262.47;7386397;19;20423;-51
2022/11/24 03:49:40;;;;;;;424.17;380.40;;;;;;;-1.44;100.00;97262.91;7387811;19;20018;-51
2022/11/24 03:52:14;;;;;;;425.35;382.45;;;;;;;-1.52;100.00;97262.28;7392909;19;20014;-51
2022/11/24 03:54:49;;;;;;;491.20;438.00;;;;;;;-1.09;100.00;97278.19;7391690;19;20017;-65
2022/11/24 03:57:23;;;;;;;436.15;392.73;;;;;;;-1.22;100.00;97276.88;7394308;19;20500;-54
2022/11/24 04:00:05;;;;;;;492.27;438.83;;;;;;;-1.11;100.00;97274.81;7393360;19;20011;-52
2022/11/24 04:02:46;;;;;;;484.13;432.13;;;;;;;-1.19;100.00;97281.91;7394075;19;20011;-51
2022/11/24 04:05:21;;;;;;;482.48;430.15;;;;;;;-1.32;100.00;97278.00;7390905;19;20011;-51
2022/11/24 04:07:56;;;;;;;532.78;474.38;;;;;;;-1.18;100.00;97273.31;7392461;19;20041;-52
2022/11/24 04:10:31;;;;;;;406.45;364.67;;;;;;;-1.24;100.00;97273.47;7393576;19;20025;-49
2022/11/24 04:13:02;;;;;;;415.88;372.50;;;;;;;-1.20;100.00;97269.09;7385180;19;20469;-50
2022/11/24 04:15:39;;;;;;;555.78;468.88;;;;;;;-1.16;100.00;97276.66;7390101;19;20043;-48
2022/11/24 04:18:15;;;;;;;479.85;427.02;;;;;;;-1.20;100.00;97280.22;7392017;19;20011;-52
2022/11/24 04:20:49;;;;;;;394.45;351.95;;;;;;;-1.05;100.00;97281.53;7392419;19;20010;-53
2022/11/24 04:23:24;;;;;;;408.42;365.63;;;;;;;-1.48;100.00;97283.63;7394004;19;20015;-51
2022/11/24 04:25:58;;;;;;;430.48;385.35;;;;;;;-1.59;100.00;97289.09;7386885;19;20010;-53
2022/11/24 04:28:32;;;;;;;494.50;433.63;;;;;;;-1.39;100.00;97289.38;7392607;19;20015;-50
2022/11/24 04:31:12;;;;;;;678.33;547.95;;;;;;;-1.46;100.00;97277.53;7394871;19;20007;-62
2022/11/24 04:33:47;;;;;;;703.70;562.25;;;;;;;-1.51;100.00;97278.56;7392359;19;20034;-49
2022/11/24 04:36:20;;;;;;;704.35;557.80;;;;;;;-1.64;100.00;97283.19;7393266;19;20014;-52
2022/11/24 04:38:55;;;;;;;714.03;574.47;;;;;;;-1.38;100.00;97290.25;7389286;19;20007;-48
2022/11/24 04:41:29;;;;;;;706.13;556.10;;;;;;;-1.36;100.00;97289.31;7392170;19;20468;-50
2022/11/24 04:44:03;;;;;;;671.08;544.22;;;;;;;-1.35;100.00;97290.97;7388188;19;20013;-59
2022/11/24 04:46:40;;;;;;;654.78;541.72;;;;;;;-1.58;100.00;97293.34;7391592;19;20400;-51
2022/11/24 04:49:21;;;;;;;668.97;553.30;;;;;;;-1.44;100.00;97301.56;7392321;19;20367;-66
2022/11/24 04:51:55;;;;;;;586.20;518.53;;;;;;;-1.46;100.00;97313.63;7389946;19;20014;-54
2022/11/24 04:54:29;;;;;;;455.67;407.95;;;;;;;-1.57;100.00;97302.78;7390728;19;20010;-49
2022/11/24 04:57:10;;;;;;;469.42;421.10;;;;;;;-1.39;100.00;97304.00;7386962;19;20055;-52
2022/11/24 04:59:44;;;;;;;453.38;408.75;;;;;;;-1.57;100.00;97307.94;7388483;19;20327;-52
2022/11/24 05:02:21;;;;;;;483.85;435.60;;;;;;;-1.50;100.00;97306.88;7385794;19;20397;-59
2022/11/24 05:04:56;;;;;;;453.08;407.13;;;;;;;-1.53;100.00;97319.84;7390171;19;20030;-51
2022/11/24 05:07:31;;;;;;;452.75;406.50;;;;;;;-1.57;100.00;97310.50;7388405;19;20379;-58
2022/11/24 05:12:50;;;;;;;454.95;409.23;;;;;;;-1.62;100.00;97322.69;7386613;19;20019;-63
2022/11/24 05:15:24;;;;;;;460.67;413.55;;;;;;;-1.40;100.00;97326.38;7390384;19;20014;-50
2022/11/24 05:18:01;;;;;;;489.83;442.38;;;;;;;-1.44;100.00;97319.63;7393354;19;20015;-54
2022/11/24 05:20:35;;;;;;;484.80;436.50;;;;;;;-1.54;100.00;97323.31;7388234;19;20025;-52
2022/11/24 05:23:10;;;;;;;487.33;439.80;;;;;;;-1.42;100.00;97325.56;7388458;19;20014;-51
2022/11/24 05:25:45;;;;;;;502.75;453.83;;;;;;;-1.38;100.00;97321.19;7387532;19;20014;-63
2022/11/24 05:28:18;;;;;;;468.13;421.73;;;;;;;-1.47;100.00;97327.44;7391888;19;20037;-52
2022/11/24 05:30:52;;;;;;;419.25;375.75;;;;;;;-1.44;100.00;97321.34;7390886;19;20366;-58
2022/11/24 05:33:32;;;;;;;435.33;389.42;;;;;;;-1.60;100.00;97328.63;7385339;19;20013;-48
2022/11/24 05:36:51;;;;;;;420.75;377.73;;;;;;;-1.59;100.00;97325.19;7388346;19;20017;-54
2022/11/24 05:39:01;;;;;;;433.70;391.10;;;;;;;-1.58;100.00;97324.28;7390060;19;20014;-51
2022/11/24 05:41:38;;;;;;;443.17;399.02;;;;;;;-1.62;100.00;97325.25;7391225;19;20011;-48
2022/11/24 05:44:13;;;;;;;438.98;394.00;;;;;;;-1.67;100.00;97328.84;7390726;19;20152;-51
2022/11/24 05:46:47;;;;;;;420.63;376.30;;;;;;;-1.67;100.00;97328.84;7388570;19;20030;-49
2022/11/24 05:49:24;;;;;;;450.33;404.30;;;;;;;-1.68;100.00;97325.41;7383457;19;20033;-48
2022/11/24 05:51:58;;;;;;;430.50;386.30;;;;;;;-1.64;100.00;97334.75;7390550;19;20015;-51
2022/11/24 05:54:35;;;;;;;440.52;396.23;;;;;;;-1.62;100.00;97335.56;7386718;19;20010;-56
2022/11/24 05:57:12;;;;;;;445.25;401.13;;;;;;;-1.53;100.00;97337.06;7385732;19;20018;-50
2022/11/24 05:59:45;;;;;;;461.35;415.15;;;;;;;-1.57;100.00;97345.75;7388617;19;20017;-58
2022/11/24 06:02:19;;;;;;;468.52;421.73;;;;;;;-1.63;100.00;97344.19;7387383;19;20018;-50
2022/11/24 06:04:55;;;;;;;516.17;460.75;;;;;;;-1.53;100.00;97349.94;7389702;19;20015;-50
2022/11/24 06:07:28;;;;;;;475.58;427.25;;;;;;;-1.53;100.00;97350.78;7382375;19;20406;-49
2022/11/24 06:10:02;;;;;;;479.33;430.40;;;;;;;-1.63;100.00;97351.06;7386787;19;20074;-49
2022/11/24 06:12:36;;;;;;;488.02;439.13;;;;;;;-1.53;100.00;97355.94;7388295;19;20017;-50
2022/11/24 06:15:11;;;;;;;462.17;416.92;;;;;;;-1.50;100.00;97355.84;7387834;19;20564;-53
2022/11/24 06:17:45;;;;;;;561.70;497.15;;;;;;;-1.56;100.00;97363.75;7390031;19;20046;-57
2022/11/24 06:20:22;;;;;;;428.80;384.95;;;;;;;-1.50;100.00;97370.47;7382796;19;20346;-48
2022/11/24 06:22:55;;;;;;;401.98;361.25;;;;;;;-1.58;100.00;97362.94;7388114;19;20011;-48
2022/11/24 06:25:29;;;;;;;513.20;450.90;;;;;;;-1.54;100.00;97374.88;7389889;19;20018;-49
2022/11/24 06:28:02;;;;;;;524.08;467.83;;;;;;;-1.56;100.00;97376.63;7390010;19;20522;-49
2022/11/24 06:30:36;;;;;;;522.53;466.17;;;;;;;-1.55;100.00;97370.63;7390109;19;20450;-50
2022/11/24 06:33:10;;;;;;;492.25;440.85;;;;;;;-1.56;100.00;97373.22;7384094;19;20070;-51
2022/11/24 06:35:46;;;;;;;797.00;631.25;;;;;;;-1.55;100.00;97382.63;7388962;19;20340;-49
2022/11/24 06:38:19;;;;;;;547.95;492.27;;;;;;;-1.54;100.00;97374.88;7387760;19;20085;-48
2022/11/24 06:40:53;;;;;;;688.88;577.13;;;;;;;-1.46;100.00;97385.00;7387206;19;20021;-49
2022/11/24 06:43:26;;;;;;;723.83;594.50;;;;;;;-1.54;100.00;97386.91;7387089;19;20027;-51
2022/11/24 06:46:00;;;;;;;745.85;607.28;;;;;;;-1.30;100.00;97394.88;7384641;19;20021;-53
2022/11/24 06:48:34;;;;;;;735.03;579.25;;;;;;;-1.32;100.00;97396.63;7386580;19;20015;-50
2022/11/24 06:51:14;;;;;;;712.55;569.63;;;;;;;-1.39;100.00;97396.81;7386401;19;20453;-48
2022/11/24 06:53:48;;;;;;;922.13;698.25;;;;;;;-1.32;100.00;97399.22;7385136;19;20038;-48
2022/11/24 06:56:25;;;;;;;826.40;641.30;;;;;;;-1.26;100.00;97401.63;7388189;19;20015;-53
2022/11/24 06:59:00;;;;;;;970.67;714.53;;;;;;;-1.33;100.00;97406.97;7386016;19;20024;-50
2022/11/24 07:01:34;;;;;;;752.92;630.55;;;;;;;-1.35;100.00;97404.44;7388648;19;20029;-50
2022/11/24 07:04:09;;;;;;;751.55;611.05;;;;;;;-1.23;100.00;97409.25;7382451;19;20014;-48
2022/11/24 07:06:50;;;;;;;553.78;493.63;;;;;;;-1.37;100.00;97403.66;7389681;19;20007;-46
2022/11/24 07:09:24;;;;;;;465.85;420.40;;;;;;;-1.63;100.00;97410.34;7381720;19;20011;-55
2022/11/24 07:11:57;;;;;;;460.85;415.23;;;;;;;-1.63;100.00;97407.78;7387522;19;20010;-46
2022/11/24 07:14:31;;;;;;;471.30;425.20;;;;;;;-1.57;100.00;97410.22;7384748;19;20370;-47
2022/11/24 07:17:04;;;;;;;469.67;423.50;;;;;;;-1.66;100.00;97413.84;7382706;19;20347;-46
2022/11/24 07:19:38;;;;;;;453.98;408.45;;;;;;;-1.52;100.00;97416.09;7386551;19;20015;-46
2022/11/24 07:22:15;;;;;;;455.60;411.10;;;;;;;-1.65;100.00;97415.53;7383067;19;20014;-49
2022/11/24 07:24:48;;;;;;;486.40;440.58;;;;;;;-1.48;100.00;97418.56;7386772;19;20450;-46
2022/11/24 07:27:22;;;;;;;549.47;498.35;;;;;;;-1.41;100.00;97419.22;7387858;19;20007;-47
2022/11/24 07:29:58;;;;;;;483.90;437.20;;;;;;;-1.35;100.00;97419.09;7381829;19;20007;-46
2022/11/24 07:32:32;;;;;;;473.92;428.35;;;;;;;-1.37;100.00;97420.84;7387257;19;20074;-47
2022/11/24 07:35:06;;;;;;;483.13;436.35;;;;;;;-1.49;100.00;97426.31;7382377;19;20038;-55
2022/11/24 07:37:42;;;;;;;474.17;427.55;;;;;;;-1.67;100.00;97429.34;7387252;19;20502;-47
2022/11/24 07:40:17;;;;;;;775.05;579.65;;;;;;;-1.45;100.00;97428.75;7387951;19;20011;-47
2022/11/24 07:42:50;;;;;;;546.08;491.73;;;;;;;-1.83;100.00;97428.00;7385974;19;20538;-50
2022/11/24 07:45:24;;;;;;;628.88;563.80;;;;;;;-1.42;100.00;97426.09;7384984;19;20038;-47
2022/11/24 07:47:57;;;;;;;521.88;471.63;;;;;;;-1.77;100.00;97426.16;7381700;19;20014;-49
2022/11/24 07:50:31;;;;;;;499.17;452.95;;;;;;;-1.53;100.00;97424.72;7386458;19;20010;-48
2022/11/24 07:53:10;;;;;;;483.95;437.40;;;;;;;-1.49;100.00;97421.16;7385529;19;20470;-46
2022/11/24 07:55:44;;;;;;;458.52;413.05;;;;;;;-1.38;100.00;97426.91;7384624;19;20105;-47
2022/11/24 07:58:17;;;;;;;466.70;421.48;;;;;;;-1.65;100.00;97430.13;7385180;19;20037;-50
2022/11/24 08:00:51;;;;;;;466.88;421.48;;;;;;;-1.74;100.00;97425.22;7381021;19;20462;-48
2022/11/24 08:03:25;;;;;;;433.98;390.60;;;;;;;-1.40;100.00;97434.66;7386015;19;20010;-49
2022/11/24 08:06:01;;;;;;;467.88;423.33;;;;;;;-1.55;100.00;97429.91;7385254;19;20038;-49
2022/11/24 08:08:37;;;;;;;454.40;410.25;;;;;;;-1.75;100.00;97439.00;7385950;19;20034;-47
2022/11/24 08:11:12;;;;;;;594.75;533.55;;;;;;;-2.11;100.00;97440.72;7385437;19;20014;-45
2022/11/24 08:13:49;;;;;;;542.53;489.17;;;;;;;-1.94;100.00;97436.00;7381619;19;20015;-49
2022/11/24 08:16:24;;;;;;;681.95;582.60;;;;;;;-1.77;100.00;97441.63;7385482;19;20086;-46
2022/11/24 08:18:59;;;;;;;639.10;559.30;;;;;;;-1.52;100.00;97441.84;7379206;19;20074;-47
2022/11/24 08:21:33;;;;;;;603.25;539.97;;;;;;;-1.77;100.00;97444.19;7382081;19;20464;-47
2022/11/24 08:24:12;;;;;;;561.88;503.85;;;;;;;-1.65;100.00;97441.31;7384288;19;20011;-47
2022/11/24 08:26:46;;;;;;;542.83;487.30;;;;;;;-1.73;100.00;97443.22;7381157;19;20959;-47
2022/11/24 08:29:21;;;;;;;520.38;467.98;;;;;;;-1.75;100.00;97444.97;7380730;19;20403;-50
2022/11/24 08:31:56;;;;;;;462.08;416.10;;;;;;;-1.84;100.00;97447.78;7377432;19;20079;-51
2022/11/24 08:34:30;;;;;;;522.80;472.05;;;;;;;-1.75;100.00;97447.56;7389750;19;20003;-52
2022/11/24 08:37:04;;;;;;;496.13;447.48;;;;;;;-1.75;100.00;97451.88;7389762;19;20454;-55
2022/11/24 08:39:43;;;;;;;553.88;496.70;;;;;;;-1.84;100.00;97452.94;7390273;19;20151;-51
2022/11/24 08:42:17;;;;;;;586.47;522.33;;;;;;;-1.84;100.00;97455.53;7391059;19;20007;-49
2022/11/24 08:44:51;;;;;;;663.28;572.95;;;;;;;-1.79;100.00;97458.81;7389907;19;20007;-50
2022/11/24 08:47:24;;;;;;;960.03;634.45;;;;;;;-1.84;100.00;97465.84;7390117;19;20021;-47
2022/11/24 08:49:57;;;;;;;563.55;502.67;;;;;;;-1.95;100.00;97468.63;7385085;19;20006;-53
2022/11/24 08:52:31;;;;;;;569.00;508.45;;;;;;;-1.77;100.00;97469.97;7390800;19;20492;-50
2022/11/24 08:55:08;;;;;;;567.90;508.63;;;;;;;-1.88;100.00;97469.38;7389356;19;20039;-54
2022/11/24 08:57:42;;;;;;;556.15;497.27;;;;;;;-1.79;100.00;97470.88;7390071;19;20015;-48
2022/11/24 09:00:22;;;;;;;555.05;495.50;;;;;;;-1.56;100.00;97464.28;7390828;19;20018;-48
2022/11/24 09:03:03;;;;;;;545.15;487.65;;;;;;;-1.36;100.00;97472.38;7384848;19;20060;-46
2022/11/24 09:05:38;;;;;;;543.25;487.38;;;;;;;-1.73;100.00;97484.47;7387133;19;20335;-46
2022/11/24 09:08:12;;;;;;;547.80;489.80;;;;;;;-1.69;100.00;97475.78;7380011;19;20320;-48
2022/11/24 09:10:48;;;;;;;499.77;449.85;;;;;;;-1.48;100.00;97472.69;7390648;19;20078;-49
2022/11/24 09:13:25;;;;;;;439.45;395.83;;;;;;;-1.30;100.00;97474.81;7389859;19;20015;-54
2022/11/24 09:15:59;;;;;;;439.92;396.73;;;;;;;-1.19;100.00;97471.94;7390271;19;20031;-49
2022/11/24 09:18:32;;;;;;;419.95;377.80;;;;;;;-1.29;100.00;97475.63;7391217;19;20018;-46
2022/11/24 09:21:13;;;;;;;444.95;400.55;;;;;;;-1.59;100.00;97473.81;7379244;19;20010;-50
2022/11/24 09:23:48;;;;;;;424.55;382.73;;;;;;;-1.63;100.00;97470.47;7383410;19;20033;-47
2022/11/24 09:26:26;;;;;;;439.35;393.83;;;;;;;-1.55;100.00;97471.16;7383039;19;20140;-49
2022/11/24 09:29:01;;;;;;;454.25;411.88;;;;;;;-1.54;100.00;97472.81;7388011;19;20054;-50
2022/11/24 09:31:38;;;;;;;454.48;411.20;;;;;;;-1.50;100.00;97473.59;7387109;19;20011;-50
2022/11/24 09:34:13;;;;;;;455.98;412.27;;;;;;;-1.90;100.00;97480.59;7386769;19;20126;-49
2022/11/24 09:36:47;;;;;;;445.30;401.67;;;;;;;-1.60;100.00;97466.97;7389731;19;20015;-50
2022/11/24 09:39:20;;;;;;;434.77;389.90;;;;;;;-1.70;100.00;97474.09;7386842;19;20576;-48
2022/11/24 09:42:13;;;;;;;431.38;387.98;;;;;;;-1.70;100.00;97478.38;7390608;19;20002;-53
2022/11/24 09:45:00;;;;;;;416.67;373.52;;;;;;;-1.77;100.00;97484.56;7387283;19;20031;-54
2022/11/24 09:47:52;;;;;;;632.67;567.67;;;;;;;-1.40;100.00;97483.66;7385510;19;20019;-51
2022/11/24 09:50:27;;;;;;;446.27;403.45;;;;;;;-1.79;100.00;97482.03;7389849;19;20346;-48
2022/11/24 09:53:07;;;;;;;592.63;528.72;;;;;;;-1.89;100.00;97480.53;7386049;19;20386;-52
2022/11/24 09:55:45;;;;;;;591.92;529.45;;;;;;;-1.89;100.00;97479.69;7387762;19;20016;-51
2022/11/24 09:58:43;;;;;;;465.63;421.02;;;;;;;-1.65;100.00;97482.53;7387145;19;20022;-55
2022/11/24 10:01:21;;;;;;;458.38;413.63;;;;;;;-1.72;100.00;97486.16;7389564;19;20021;-52
2022/11/24 10:03:56;;;;;;;464.38;418.27;;;;;;;-1.57;100.00;97484.97;7384687;19;20026;-51
2022/11/24 10:06:37;;;;;;;472.40;426.85;;;;;;;-1.69;100.00;97485.22;7388300;19;20446;-48
2022/11/24 10:09:26;;;;;;;480.42;433.60;;;;;;;-1.36;100.00;97481.84;7381677;19;20019;-53
2022/11/24 10:12:10;;;;;;;449.38;404.73;;;;;;;-1.49;100.00;97483.03;7387474;19;20014;-50
2022/11/24 10:15:05;;;;;;;454.98;409.92;;;;;;;-1.66;100.00;97486.03;7388066;19;20018;-49
2022/11/24 10:17:54;;;;;;;460.63;414.95;;;;;;;-1.69;100.00;97493.81;7381736;19;20049;-52
2022/11/24 10:20:36;;;;;;;443.17;399.45;;;;;;;-1.57;100.00;97488.38;7387802;19;20023;-48
2022/11/24 10:23:24;;;;;;;423.45;379.77;;;;;;;-1.62;100.00;97484.19;7383235;19;20094;-50
2022/11/24 10:26:02;;;;;;;426.73;383.67;;;;;;;-1.48;100.00;97495.91;7388523;19;20037;-51
2022/11/24 10:28:45;;;;;;;429.65;386.75;;;;;;;-1.40;100.00;97496.53;7387340;19;20023;-49
2022/11/24 10:31:35;;;;;;;433.40;389.83;;;;;;;-1.43;100.00;97493.19;7386745;19;20011;-49
2022/11/24 10:34:19;;;;;;;460.08;415.40;;;;;;;-1.59;100.00;97497.88;7384713;19;20082;-48
2022/11/24 10:37:03;;;;;;;529.90;476.73;;;;;;;-1.64;100.00;97493.72;7382795;19;20044;-56
2022/11/24 10:39:45;;;;;;;433.90;392.52;;;;;;;-1.52;100.00;97489.13;7384934;19;20015;-49
2022/11/24 10:42:24;;;;;;;524.08;471.60;;;;;;;-1.57;100.00;97496.09;7381981;19;20028;-50
2022/11/24 10:45:06;;;;;;;473.63;427.27;;;;;;;-1.53;100.00;97494.31;7387268;19;20819;-53
2022/11/24 10:47:42;;;;;;;501.38;451.38;;;;;;;-1.78;100.00;97496.59;7376624;19;20056;-49
2022/11/24 10:50:24;;;;;;;501.13;452.00;;;;;;;-1.69;100.00;97495.53;7386076;19;20010;-50
2022/11/24 10:53:08;;;;;;;553.20;496.95;;;;;;;-1.70;100.00;97494.72;7383878;19;20020;-50
2022/11/24 10:56:07;;;;;;;466.30;420.75;;;;;;;-1.54;100.00;97495.16;7387507;19;20029;-51
2022/11/24 10:58:41;;;;;;;442.15;398.20;;;;;;;-1.59;100.00;97502.19;7387378;19;20615;-51
2022/11/24 11:01:39;;;;;;;459.40;415.00;;;;;;;-1.65;100.00;97499.72;7389398;19;20014;-59
2022/11/24 11:04:25;;;;;;;450.05;406.40;;;;;;;-1.52;100.00;97498.56;7385822;19;20027;-51
2022/11/24 11:07:13;;;;;;;584.92;528.63;;;;;;;-1.60;100.00;97501.31;7381075;19;20233;-50
2022/11/24 11:09:47;;;;;;;484.50;438.15;;;;;;;-1.67;100.00;97501.50;7381006;19;20018;-51
2022/11/24 11:12:28;;;;;;;631.42;571.95;;;;;;;-1.62;100.00;97495.38;7383232;19;20028;-50
2022/11/24 11:15:02;;;;;;;666.75;598.03;;;;;;;-1.60;100.00;97497.91;7389024;19;20026;-47
2022/11/24 11:17:41;;;;;;;668.20;598.67;;;;;;;-1.70;100.00;97509.31;7381737;19;20010;-53
2022/11/24 11:20:24;;;;;;;581.03;520.17;;;;;;;-2.07;100.00;97506.72;7388418;19;20078;-54
2022/11/24 11:22:58;;;;;;;611.03;546.20;;;;;;;-1.50;100.00;97501.94;7384444;19;20035;-52
2022/11/24 11:25:37;;;;;;;806.65;659.58;;;;;;;-1.72;100.00;97511.91;7389205;19;20018;-51
2022/11/24 11:28:31;;;;;;;723.03;624.10;;;;;;;-1.50;100.00;97502.81;7384947;19;20453;-47
2022/11/24 11:31:06;;;;;;;573.38;514.20;;;;;;;-1.27;100.00;97499.69;7387968;19;20042;-47
2022/11/24 11:33:39;;;;;;;639.88;572.72;;;;;;;-1.23;100.00;97499.53;7383258;19;20014;-47
2022/11/24 11:36:16;;;;;;;580.95;521.58;;;;;;;-1.32;100.00;97504.94;7389598;19;20450;-49
2022/11/24 11:38:52;;;;;;;486.42;437.80;;;;;;;-1.26;100.00;97512.53;7385851;19;20050;-49